sensor_id;sensor_type;location;lat;lon;timestamp;pressure;altitude;pressure_sealevel;temperature;humidity
61205;BME280;47068;55.780;37.520;2022-10-26T00:01:02;100430.34;;;3.13;65.70
61205;BME280;47068;55.780;37.520;2022-10-26T00:03:27;100415.97;;;3.18;65.30
61205;BME280;47068;55.780;37.520;2022-10-26T00:05:53;100422.81;;;3.21;65.42
61205;BME280;47068;55.780;37.520;2022-10-26T00:08:18;100421.22;;;3.18;65.22
61205;BME280;47068;55.780;37.520;2022-10-26T00:10:44;100419.25;;;3.22;65.44
61205;BME280;47068;55.780;37.520;2022-10-26T00:13:11;100415.38;;;3.28;65.35
61205;BME280;47068;55.780;37.520;2022-10-26T00:15:41;100416.22;;;3.28;65.00
61205;BME280;47068;55.780;37.520;2022-10-26T00:18:07;100415.88;;;3.20;65.14
61205;BME280;47068;55.780;37.520;2022-10-26T00:20:33;100413.66;;;3.14;65.28
61205;BME280;47068;55.780;37.520;2022-10-26T00:22:58;100407.94;;;3.07;65.49
61205;BME280;47068;55.780;37.520;2022-10-26T00:25:24;100401.59;;;2.97;65.67
61205;BME280;47068;55.780;37.520;2022-10-26T00:27:49;100401.97;;;2.91;65.74
61205;BME280;47068;55.780;37.520;2022-10-26T00:30:14;100403.22;;;2.86;66.21
61205;BME280;47068;55.780;37.520;2022-10-26T00:32:40;100398.34;;;2.80;66.43
61205;BME280;47068;55.780;37.520;2022-10-26T00:35:06;100402.31;;;2.72;66.60
61205;BME280;47068;55.780;37.520;2022-10-26T00:37:31;100414.06;;;2.67;66.84
61205;BME280;47068;55.780;37.520;2022-10-26T00:39:57;100367.44;;;2.42;66.88
61205;BME280;47068;55.780;37.520;2022-10-26T00:42:22;100385.81;;;2.42;67.07
61205;BME280;47068;55.780;37.520;2022-10-26T00:47:23;100403.94;;;2.47;67.55
61205;BME280;47068;55.780;37.520;2022-10-26T00:49:53;100406.66;;;2.45;67.70
61205;BME280;47068;55.780;37.520;2022-10-26T00:52:20;100416.22;;;2.46;67.53
61205;BME280;47068;55.780;37.520;2022-10-26T00:54:46;100400.56;;;2.30;67.75
61205;BME280;47068;55.780;37.520;2022-10-26T00:57:14;100412.38;;;2.37;67.80
61205;BME280;47068;55.780;37.520;2022-10-26T00:59:42;100415.09;;;2.36;68.09
61205;BME280;47068;55.780;37.520;2022-10-26T01:02:09;100361.78;;;2.07;68.14
61205;BME280;47068;55.780;37.520;2022-10-26T01:04:35;100400.31;;;2.35;68.21
61205;BME280;47068;55.780;37.520;2022-10-26T01:07:02;100362.41;;;2.11;67.75
61205;BME280;47068;55.780;37.520;2022-10-26T01:09:29;100394.84;;;2.24;67.83
61205;BME280;47068;55.780;37.520;2022-10-26T01:11:55;100397.19;;;2.28;67.50
61205;BME280;47068;55.780;37.520;2022-10-26T01:14:21;100406.66;;;2.31;67.81
61205;BME280;47068;55.780;37.520;2022-10-26T01:22:39;100405.66;;;2.33;67.49
61205;BME280;47068;55.780;37.520;2022-10-26T01:25:33;100411.00;;;2.32;67.73
61205;BME280;47068;55.780;37.520;2022-10-26T01:28:09;100386.97;;;2.10;67.88
61205;BME280;47068;55.780;37.520;2022-10-26T01:30:43;100370.97;;;2.00;67.91
61205;BME280;47068;55.780;37.520;2022-10-26T01:36:01;100395.41;;;2.15;68.43
61205;BME280;47068;55.780;37.520;2022-10-26T01:38:37;100408.53;;;2.29;68.03
61205;BME280;47068;55.780;37.520;2022-10-26T01:44:08;100403.66;;;2.23;68.30
61205;BME280;47068;55.780;37.520;2022-10-26T01:46:40;100332.91;;;1.79;68.29
61205;BME280;47068;55.780;37.520;2022-10-26T01:49:09;100402.19;;;2.19;68.74
61205;BME280;47068;55.780;37.520;2022-10-26T01:51:38;100312.28;;;1.73;68.52
61205;BME280;47068;55.780;37.520;2022-10-26T01:54:04;100404.03;;;2.31;68.56
61205;BME280;47068;55.780;37.520;2022-10-26T01:56:34;100408.19;;;2.35;67.91
61205;BME280;47068;55.780;37.520;2022-10-26T01:59:02;100401.03;;;2.37;68.23
61205;BME280;47068;55.780;37.520;2022-10-26T02:07:02;100406.38;;;2.21;68.43
61205;BME280;47068;55.780;37.520;2022-10-26T02:12:58;100416.06;;;2.07;68.81
61205;BME280;47068;55.780;37.520;2022-10-26T02:16:00;100401.22;;;2.06;69.63
61205;BME280;47068;55.780;37.520;2022-10-26T02:18:32;100415.09;;;2.08;69.80
61205;BME280;47068;55.780;37.520;2022-10-26T02:21:06;100395.13;;;2.05;69.48
61205;BME280;47068;55.780;37.520;2022-10-26T02:23:36;100382.47;;;1.97;69.30
61205;BME280;47068;55.780;37.520;2022-10-26T02:26:07;100405.19;;;2.13;69.08
61205;BME280;47068;55.780;37.520;2022-10-26T02:28:41;100396.16;;;2.17;69.37
61205;BME280;47068;55.780;37.520;2022-10-26T02:31:09;100400.88;;;2.26;69.42
61205;BME280;47068;55.780;37.520;2022-10-26T02:33:39;100391.66;;;2.33;68.88
61205;BME280;47068;55.780;37.520;2022-10-26T02:36:11;100391.84;;;2.30;68.81
61205;BME280;47068;55.780;37.520;2022-10-26T02:38:39;100404.72;;;2.34;68.48
61205;BME280;47068;55.780;37.520;2022-10-26T02:41:06;100400.78;;;2.27;68.18
61205;BME280;47068;55.780;37.520;2022-10-26T02:43:38;100333.38;;;1.85;68.57
61205;BME280;47068;55.780;37.520;2022-10-26T02:46:09;100403.19;;;2.16;69.28
61205;BME280;47068;55.780;37.520;2022-10-26T02:48:37;100391.22;;;2.12;69.06
61205;BME280;47068;55.780;37.520;2022-10-26T02:51:09;100393.63;;;2.15;69.04
61205;BME280;47068;55.780;37.520;2022-10-26T02:56:16;100404.13;;;2.15;69.14
61205;BME280;47068;55.780;37.520;2022-10-26T02:58:45;100400.47;;;2.18;69.06
61205;BME280;47068;55.780;37.520;2022-10-26T03:01:12;100399.34;;;2.22;69.07
61205;BME280;47068;55.780;37.520;2022-10-26T03:03:38;100409.28;;;2.31;68.56
61205;BME280;47068;55.780;37.520;2022-10-26T03:06:04;100406.66;;;2.31;68.27
61205;BME280;47068;55.780;37.520;2022-10-26T03:08:30;100403.97;;;2.32;68.20
61205;BME280;47068;55.780;37.520;2022-10-26T03:10:55;100398.41;;;2.23;68.32
61205;BME280;47068;55.780;37.520;2022-10-26T03:13:20;100401.97;;;2.22;68.72
61205;BME280;47068;55.780;37.520;2022-10-26T03:15:46;100379.94;;;2.10;68.79
61205;BME280;47068;55.780;37.520;2022-10-26T03:18:11;100360.16;;;1.90;68.66
61205;BME280;47068;55.780;37.520;2022-10-26T03:20:37;100397.31;;;2.13;68.33
61205;BME280;47068;55.780;37.520;2022-10-26T03:23:02;100380.41;;;2.03;68.72
61205;BME280;47068;55.780;37.520;2022-10-26T03:25:27;100399.34;;;2.22;68.89
61205;BME280;47068;55.780;37.520;2022-10-26T03:28:00;100394.47;;;2.30;68.24
61205;BME280;47068;55.780;37.520;2022-10-26T03:30:27;100390.91;;;2.31;68.54
61205;BME280;47068;55.780;37.520;2022-10-26T03:32:53;100372.53;;;2.17;68.60
61205;BME280;47068;55.780;37.520;2022-10-26T03:35:19;100337.66;;;2.01;68.56
61205;BME280;47068;55.780;37.520;2022-10-26T03:37:44;100347.59;;;2.10;67.94
61205;BME280;47068;55.780;37.520;2022-10-26T03:40:10;100396.72;;;2.36;68.15
61205;BME280;47068;55.780;37.520;2022-10-26T03:42:36;100395.69;;;2.38;67.81
61205;BME280;47068;55.780;37.520;2022-10-26T03:45:02;100397.47;;;2.38;68.04
61205;BME280;47068;55.780;37.520;2022-10-26T03:47:28;100390.75;;;2.34;68.18
61205;BME280;47068;55.780;37.520;2022-10-26T03:49:53;100387.19;;;2.35;68.43
61205;BME280;47068;55.780;37.520;2022-10-26T03:52:19;100393.25;;;2.35;67.78
61205;BME280;47068;55.780;37.520;2022-10-26T03:54:44;100387.91;;;2.37;68.01
61205;BME280;47068;55.780;37.520;2022-10-26T03:57:10;100393.53;;;2.45;67.97
61205;BME280;47068;55.780;37.520;2022-10-26T03:59:35;100389.59;;;2.52;67.87
61205;BME280;47068;55.780;37.520;2022-10-26T04:02:01;100310.84;;;2.10;67.63
61205;BME280;47068;55.780;37.520;2022-10-26T04:04:27;100389.09;;;2.60;67.61
61205;BME280;47068;55.780;37.520;2022-10-26T04:06:52;100381.16;;;2.47;67.15
61205;BME280;47068;55.780;37.520;2022-10-26T04:09:17;100375.63;;;2.37;67.48
61205;BME280;47068;55.780;37.520;2022-10-26T04:11:43;100367.56;;;2.26;67.76
61205;BME280;47068;55.780;37.520;2022-10-26T04:14:08;100402.34;;;2.44;67.82
61205;BME280;47068;55.780;37.520;2022-10-26T04:16:34;100398.41;;;2.51;67.92
61205;BME280;47068;55.780;37.520;2022-10-26T04:18:59;100368.03;;;2.33;67.48
61205;BME280;47068;55.780;37.520;2022-10-26T04:21:25;100345.53;;;2.29;67.20
61205;BME280;47068;55.780;37.520;2022-10-26T04:23:50;100401.84;;;2.66;67.43
61205;BME280;47068;55.780;37.520;2022-10-26T04:26:16;100399.13;;;2.67;66.75
61205;BME280;47068;55.780;37.520;2022-10-26T04:28:41;100375.69;;;2.50;67.31
61205;BME280;47068;55.780;37.520;2022-10-26T04:31:07;100400.88;;;2.81;66.70
61205;BME280;47068;55.780;37.520;2022-10-26T04:33:32;100414.56;;;2.86;66.43
61205;BME280;47068;55.780;37.520;2022-10-26T04:35:58;100417.28;;;2.85;66.19
61205;BME280;47068;55.780;37.520;2022-10-26T04:38:25;100413.53;;;2.89;66.37
61205;BME280;47068;55.780;37.520;2022-10-26T04:40:50;100375.31;;;2.56;65.81
61205;BME280;47068;55.780;37.520;2022-10-26T04:43:16;100422.94;;;2.78;65.90
61205;BME280;47068;55.780;37.520;2022-10-26T04:45:41;100421.84;;;2.68;66.88
61205;BME280;47068;55.780;37.520;2022-10-26T04:48:09;100422.97;;;2.64;66.77
61205;BME280;47068;55.780;37.520;2022-10-26T04:50:35;100409.66;;;2.67;66.96
61205;BME280;47068;55.780;37.520;2022-10-26T04:53:02;100425.09;;;2.86;66.54
61205;BME280;47068;55.780;37.520;2022-10-26T04:55:27;100426.28;;;2.95;66.35
61205;BME280;47068;55.780;37.520;2022-10-26T04:57:52;100411.47;;;2.94;66.00
61205;BME280;47068;55.780;37.520;2022-10-26T05:00:18;100375.44;;;2.82;65.57
61205;BME280;47068;55.780;37.520;2022-10-26T05:02:43;100416.19;;;3.15;65.64
61205;BME280;47068;55.780;37.520;2022-10-26T05:05:09;100419.34;;;3.21;65.41
61205;BME280;47068;55.780;37.520;2022-10-26T05:07:35;100428.09;;;3.21;64.84
61205;BME280;47068;55.780;37.520;2022-10-26T05:10:00;100422.47;;;3.13;65.05
61205;BME280;47068;55.780;37.520;2022-10-26T05:12:25;100413.75;;;3.12;65.25
61205;BME280;47068;55.780;37.520;2022-10-26T05:14:51;100419.66;;;3.16;65.40
61205;BME280;47068;55.780;37.520;2022-10-26T05:17:16;100399.81;;;3.25;65.35
61205;BME280;47068;55.780;37.520;2022-10-26T05:19:42;100412.78;;;3.40;64.34
61205;BME280;47068;55.780;37.520;2022-10-26T05:22:07;100408.28;;;3.42;64.32
61205;BME280;47068;55.780;37.520;2022-10-26T05:24:33;100405.03;;;3.51;63.75
61205;BME280;47068;55.780;37.520;2022-10-26T05:26:59;100409.44;;;3.38;64.04
61205;BME280;47068;55.780;37.520;2022-10-26T05:29:24;100404.22;;;3.24;64.13
61205;BME280;47068;55.780;37.520;2022-10-26T05:31:50;100409.91;;;3.18;64.68
61205;BME280;47068;55.780;37.520;2022-10-26T05:34:16;100407.78;;;3.23;65.08
61205;BME280;47068;55.780;37.520;2022-10-26T05:36:44;100401.28;;;3.29;64.08
61205;BME280;47068;55.780;37.520;2022-10-26T05:39:10;100416.22;;;3.28;64.53
61205;BME280;47068;55.780;37.520;2022-10-26T05:41:35;100410.56;;;3.34;64.37
61205;BME280;47068;55.780;37.520;2022-10-26T05:44:00;100415.41;;;3.40;64.08
61205;BME280;47068;55.780;37.520;2022-10-26T05:46:26;100418.66;;;3.31;64.04
61205;BME280;47068;55.780;37.520;2022-10-26T05:48:51;100419.25;;;3.22;63.78
61205;BME280;47068;55.780;37.520;2022-10-26T05:51:17;100401.69;;;2.96;64.53
61205;BME280;47068;55.780;37.520;2022-10-26T05:53:42;100419.22;;;3.09;64.84
61205;BME280;47068;55.780;37.520;2022-10-26T05:56:17;100426.47;;;3.18;64.58
61205;BME280;47068;55.780;37.520;2022-10-26T05:58:46;100419.59;;;3.30;64.55
61205;BME280;47068;55.780;37.520;2022-10-26T06:06:52;100390.84;;;3.67;62.58
61205;BME280;47068;55.780;37.520;2022-10-26T06:09:19;100427.31;;;4.11;62.36
61205;BME280;47068;55.780;37.520;2022-10-26T06:11:45;100396.75;;;3.95;61.84
61205;BME280;47068;55.780;37.520;2022-10-26T06:14:11;100397.09;;;4.04;61.08
61205;BME280;47068;55.780;37.520;2022-10-26T06:19:17;100419.94;;;4.41;60.44
61205;BME280;47068;55.780;37.520;2022-10-26T06:24:37;100417.59;;;4.36;60.57
61205;BME280;47068;55.780;37.520;2022-10-26T06:30:07;100429.38;;;4.69;60.43
61205;BME280;47068;55.780;37.520;2022-10-26T06:32:39;100430.75;;;4.98;59.02
61205;BME280;47068;55.780;37.520;2022-10-26T06:35:18;100409.81;;;4.97;58.58
61205;BME280;47068;55.780;37.520;2022-10-26T06:37:45;100354.84;;;4.67;58.09
61205;BME280;47068;55.780;37.520;2022-10-26T06:40:12;100413.84;;;5.13;57.94
61205;BME280;47068;55.780;37.520;2022-10-26T06:42:39;100414.69;;;5.14;57.83
61205;BME280;47068;55.780;37.520;2022-10-26T06:45:05;100408.47;;;5.15;57.99
61205;BME280;47068;55.780;37.520;2022-10-26T06:47:56;100410.09;;;5.29;57.41
61205;BME280;47068;55.780;37.520;2022-10-26T06:50:40;100410.47;;;5.59;56.51
61205;BME280;47068;55.780;37.520;2022-10-26T06:55:58;100369.50;;;5.88;55.23
61205;BME280;47068;55.780;37.520;2022-10-26T06:58:27;100409.63;;;6.05;54.39
61205;BME280;47068;55.780;37.520;2022-10-26T07:00:54;100414.94;;;6.16;55.27
61205;BME280;47068;55.780;37.520;2022-10-26T07:03:20;100381.78;;;6.12;54.58
61205;BME280;47068;55.780;37.520;2022-10-26T07:05:46;100371.94;;;6.25;54.30
61205;BME280;47068;55.780;37.520;2022-10-26T07:08:11;100408.97;;;6.47;53.79
61205;BME280;47068;55.780;37.520;2022-10-26T07:10:38;100409.19;;;6.55;53.19
61205;BME280;47068;55.780;37.520;2022-10-26T07:13:07;100381.06;;;6.32;53.44
61205;BME280;47068;55.780;37.520;2022-10-26T07:15:33;100365.34;;;6.30;53.58
61205;BME280;47068;55.780;37.520;2022-10-26T07:18:00;100398.22;;;6.82;53.15
61205;BME280;47068;55.780;37.520;2022-10-26T07:20:27;100413.75;;;6.64;53.07
61205;BME280;47068;55.780;37.520;2022-10-26T07:22:53;100407.13;;;6.37;53.50
61205;BME280;47068;55.780;37.520;2022-10-26T07:25:24;100408.53;;;5.96;54.51
61205;BME280;47068;55.780;37.520;2022-10-26T07:27:49;100408.84;;;5.80;55.25
61205;BME280;47068;55.780;37.520;2022-10-26T07:30:15;100405.31;;;5.92;55.33
61205;BME280;47068;55.780;37.520;2022-10-26T07:32:41;100410.25;;;6.08;54.86
61205;BME280;47068;55.780;37.520;2022-10-26T07:35:06;100415.19;;;6.13;53.86
61205;BME280;47068;55.780;37.520;2022-10-26T07:37:32;100411.22;;;6.18;54.23
61205;BME280;47068;55.780;37.520;2022-10-26T07:39:58;100384.91;;;6.17;53.92
61205;BME280;47068;55.780;37.520;2022-10-26T07:42:23;100415.19;;;6.57;53.31
61205;BME280;47068;55.780;37.520;2022-10-26T07:44:49;100417.81;;;6.80;52.21
61205;BME280;47068;55.780;37.520;2022-10-26T07:47:14;100390.69;;;6.44;52.95
61205;BME280;47068;55.780;37.520;2022-10-26T07:49:40;100415.19;;;6.57;52.95
61205;BME280;47068;55.780;37.520;2022-10-26T07:52:05;100404.97;;;6.64;53.23
61205;BME280;47068;55.780;37.520;2022-10-26T07:54:31;100393.06;;;6.81;53.26
61205;BME280;47068;55.780;37.520;2022-10-26T07:56:57;100407.44;;;7.10;52.29
61205;BME280;47068;55.780;37.520;2022-10-26T07:59:23;100407.44;;;6.99;51.30
61205;BME280;47068;55.780;37.520;2022-10-26T08:01:48;100399.06;;;6.83;52.27
61205;BME280;47068;55.780;37.520;2022-10-26T08:04:14;100385.63;;;6.75;51.90
61205;BME280;47068;55.780;37.520;2022-10-26T08:06:40;100406.06;;;6.84;51.63
61205;BME280;47068;55.780;37.520;2022-10-26T08:09:05;100373.03;;;6.56;52.23
61205;BME280;47068;55.780;37.520;2022-10-26T08:11:31;100421.91;;;6.84;52.27
61205;BME280;47068;55.780;37.520;2022-10-26T08:13:57;100383.47;;;6.46;52.83
61205;BME280;47068;55.780;37.520;2022-10-26T08:16:23;100414.97;;;6.60;52.66
61205;BME280;47068;55.780;37.520;2022-10-26T08:18:49;100407.25;;;6.57;53.15
61205;BME280;47068;55.780;37.520;2022-10-26T08:21:15;100415.69;;;6.62;52.23
61205;BME280;47068;55.780;37.520;2022-10-26T08:23:41;100142.59;;;4.85;53.06
61205;BME280;47068;55.780;37.520;2022-10-26T08:26:08;100402.09;;;6.56;53.11
61205;BME280;47068;55.780;37.520;2022-10-26T08:28:36;100411.09;;;6.64;53.20
61205;BME280;47068;55.780;37.520;2022-10-26T08:31:01;100413.88;;;6.63;52.90
61205;BME280;47068;55.780;37.520;2022-10-26T08:33:27;100369.53;;;6.33;53.23
61205;BME280;47068;55.780;37.520;2022-10-26T08:35:59;100410.38;;;6.51;52.89
61205;BME280;47068;55.780;37.520;2022-10-26T08:38:26;100406.78;;;6.63;53.09
61205;BME280;47068;55.780;37.520;2022-10-26T08:40:52;100407.50;;;6.54;52.83
61205;BME280;47068;55.780;37.520;2022-10-26T08:43:25;100403.28;;;6.29;53.21
61205;BME280;47068;55.780;37.520;2022-10-26T08:48:37;100413.78;;;6.42;53.97
61205;BME280;47068;55.780;37.520;2022-10-26T08:51:12;100416.63;;;6.50;53.61
61205;BME280;47068;55.780;37.520;2022-10-26T08:53:45;100395.50;;;6.39;53.97
61205;BME280;47068;55.780;37.520;2022-10-26T08:58:54;100408.69;;;6.50;54.03
61205;BME280;47068;55.780;37.520;2022-10-26T09:01:21;100412.56;;;6.68;53.75
61205;BME280;47068;55.780;37.520;2022-10-26T09:03:47;100382.25;;;6.72;52.50
61205;BME280;47068;55.780;37.520;2022-10-26T09:06:42;100406.31;;;7.12;51.79
61205;BME280;47068;55.780;37.520;2022-10-26T09:09:15;100392.91;;;7.04;51.99
61205;BME280;47068;55.780;37.520;2022-10-26T09:17:41;100412.88;;;6.97;52.66
61205;BME280;47068;55.780;37.520;2022-10-26T09:23:27;100415.75;;;6.94;51.69
61205;BME280;47068;55.780;37.520;2022-10-26T09:26:04;100409.88;;;6.91;52.31
61205;BME280;47068;55.780;37.520;2022-10-26T09:28:36;100415.72;;;7.05;52.34
61205;BME280;47068;55.780;37.520;2022-10-26T09:31:03;100406.31;;;7.24;52.20
61205;BME280;47068;55.780;37.520;2022-10-26T09:33:33;100404.25;;;7.59;51.44
61205;BME280;47068;55.780;37.520;2022-10-26T09:36:05;100400.97;;;7.87;49.83
61205;BME280;47068;55.780;37.520;2022-10-26T09:46:04;100398.75;;;8.74;47.91
61205;BME280;47068;55.780;37.520;2022-10-26T09:48:53;100407.13;;;8.79;49.15
61205;BME280;47068;55.780;37.520;2022-10-26T09:51:20;100377.09;;;8.69;48.15
61205;BME280;47068;55.780;37.520;2022-10-26T09:53:47;100409.78;;;8.39;48.22
61205;BME280;47068;55.780;37.520;2022-10-26T09:56:13;100361.53;;;8.24;48.13
61205;BME280;47068;55.780;37.520;2022-10-26T09:58:43;100403.09;;;8.45;49.50
61205;BME280;47068;55.780;37.520;2022-10-26T10:01:30;100364.09;;;8.56;48.85
61205;BME280;47068;55.780;37.520;2022-10-26T10:06:33;100411.47;;;8.80;48.01
61205;BME280;47068;55.780;37.520;2022-10-26T10:09:10;100410.03;;;8.66;48.03
61205;BME280;47068;55.780;37.520;2022-10-26T10:11:50;100399.56;;;8.65;48.80
61205;BME280;47068;55.780;37.520;2022-10-26T10:14:23;100399.84;;;8.72;47.66
61205;BME280;47068;55.780;37.520;2022-10-26T10:16:53;100391.16;;;8.60;48.63
61205;BME280;47068;55.780;37.520;2022-10-26T10:19:25;100400.56;;;8.64;48.53
61205;BME280;47068;55.780;37.520;2022-10-26T10:21:53;100392.50;;;8.45;48.10
61205;BME280;47068;55.780;37.520;2022-10-26T10:27:15;100388.16;;;8.23;48.50
61205;BME280;47068;55.780;37.520;2022-10-26T10:29:49;100404.31;;;8.61;48.59
61205;BME280;47068;55.780;37.520;2022-10-26T10:32:27;100392.97;;;8.50;48.19
61205;BME280;47068;55.780;37.520;2022-10-26T10:34:56;100392.56;;;8.54;47.91
61205;BME280;47068;55.780;37.520;2022-10-26T10:37:29;100392.38;;;8.46;48.33
61205;BME280;47068;55.780;37.520;2022-10-26T10:40:18;100394.47;;;8.43;48.12
61205;BME280;47068;55.780;37.520;2022-10-26T10:42:45;100375.72;;;8.35;48.74
61205;BME280;47068;55.780;37.520;2022-10-26T10:45:22;100381.88;;;8.45;48.72
61205;BME280;47068;55.780;37.520;2022-10-26T10:48:04;100405.44;;;8.68;48.19
61205;BME280;47068;55.780;37.520;2022-10-26T10:50:31;100362.72;;;8.72;47.74
61205;BME280;47068;55.780;37.520;2022-10-26T10:53:42;100389.34;;;8.60;48.13
61205;BME280;47068;55.780;37.520;2022-10-26T11:04:35;100396.22;;;8.73;47.97
61205;BME280;47068;55.780;37.520;2022-10-26T11:07:06;100416.91;;;8.69;47.86
61205;BME280;47068;55.780;37.520;2022-10-26T11:09:37;100370.56;;;8.12;49.19
61205;BME280;47068;55.780;37.520;2022-10-26T11:12:12;100377.06;;;8.29;48.25
61205;BME280;47068;55.780;37.520;2022-10-26T11:14:42;100382.75;;;8.24;48.19
61205;BME280;47068;55.780;37.520;2022-10-26T11:17:21;100388.94;;;8.55;48.06
61205;BME280;47068;55.780;37.520;2022-10-26T11:22:16;100395.38;;;8.72;48.58
61205;BME280;47068;55.780;37.520;2022-10-26T11:25:03;100386.47;;;8.12;48.00
61205;BME280;47068;55.780;37.520;2022-10-26T11:27:51;100385.63;;;7.70;49.94
61205;BME280;47068;55.780;37.520;2022-10-26T11:30:20;100389.72;;;7.54;50.75
61205;BME280;47068;55.780;37.520;2022-10-26T11:36:02;100380.13;;;7.41;50.60
61205;BME280;47068;55.780;37.520;2022-10-26T11:38:35;100373.13;;;7.40;50.52
61205;BME280;47068;55.780;37.520;2022-10-26T11:43:37;100339.53;;;6.88;51.04
61205;BME280;47068;55.780;37.520;2022-10-26T11:46:08;100383.72;;;7.08;51.37
61205;BME280;47068;55.780;37.520;2022-10-26T11:51:19;100368.06;;;7.17;52.03
61205;BME280;47068;55.780;37.520;2022-10-26T11:53:46;100378.03;;;7.24;51.24
61205;BME280;47068;55.780;37.520;2022-10-26T11:56:29;100371.56;;;7.17;51.72
61205;BME280;47068;55.780;37.520;2022-10-26T11:58:56;100331.03;;;6.73;51.95
61205;BME280;47068;55.780;37.520;2022-10-26T12:01:24;100333.56;;;6.75;51.86
61205;BME280;47068;55.780;37.520;2022-10-26T12:03:53;100369.72;;;6.97;52.29
61205;BME280;47068;55.780;37.520;2022-10-26T12:06:24;100370.78;;;6.94;52.31
61205;BME280;47068;55.780;37.520;2022-10-26T12:09:00;100370.06;;;6.92;52.71
61205;BME280;47068;55.780;37.520;2022-10-26T12:14:13;100364.66;;;6.94;52.50
61205;BME280;47068;55.780;37.520;2022-10-26T12:22:13;100366.09;;;6.98;51.79
61205;BME280;47068;55.780;37.520;2022-10-26T12:24:44;100361.50;;;7.00;51.74
61205;BME280;47068;55.780;37.520;2022-10-26T12:27:30;100361.31;;;6.81;52.22
61205;BME280;47068;55.780;37.520;2022-10-26T12:37:55;100362.91;;;6.61;52.61
61205;BME280;47068;55.780;37.520;2022-10-26T12:42:57;100363.16;;;6.58;52.59
61205;BME280;47068;55.780;37.520;2022-10-26T12:48:40;100369.91;;;6.62;53.30
61205;BME280;47068;55.780;37.520;2022-10-26T12:56:28;100362.75;;;6.85;53.25
61205;BME280;47068;55.780;37.520;2022-10-26T12:59:10;100359.47;;;6.92;52.33
61205;BME280;47068;55.780;37.520;2022-10-26T13:07:40;100364.09;;;6.79;52.60
61205;BME280;47068;55.780;37.520;2022-10-26T13:12:46;100350.66;;;6.60;52.82
61205;BME280;47068;55.780;37.520;2022-10-26T13:18:01;100359.66;;;6.68;53.36
61205;BME280;47068;55.780;37.520;2022-10-26T13:20:33;100356.06;;;6.69;53.40
61205;BME280;47068;55.780;37.520;2022-10-26T13:23:01;100336.94;;;6.66;53.41
61205;BME280;47068;55.780;37.520;2022-10-26T13:25:29;100314.13;;;6.54;52.95
61205;BME280;47068;55.780;37.520;2022-10-26T13:28:28;100347.41;;;6.67;53.59
61205;BME280;47068;55.780;37.520;2022-10-26T13:30:51;100355.09;;;6.70;53.52
61205;BME280;47068;55.780;37.520;2022-10-26T13:33:20;100361.97;;;6.62;53.89
61205;BME280;47068;55.780;37.520;2022-10-26T13:35:49;100359.91;;;6.65;54.16
61205;BME280;47068;55.780;37.520;2022-10-26T13:38:18;100350.09;;;6.56;53.92
61205;BME280;47068;55.780;37.520;2022-10-26T13:40:45;100324.75;;;6.43;54.26
61205;BME280;47068;55.780;37.520;2022-10-26T13:43:19;100337.13;;;6.42;54.16
61205;BME280;47068;55.780;37.520;2022-10-26T13:45:53;100364.75;;;6.49;54.72
61205;BME280;47068;55.780;37.520;2022-10-26T13:48:25;100361.50;;;6.46;54.37
61205;BME280;47068;55.780;37.520;2022-10-26T13:50:54;100327.88;;;6.25;55.15
61205;BME280;47068;55.780;37.520;2022-10-26T13:53:37;100362.94;;;6.50;55.06
61205;BME280;47068;55.780;37.520;2022-10-26T13:58:53;100320.34;;;5.75;56.12
61205;BME280;47068;55.780;37.520;2022-10-26T14:01:23;100354.44;;;5.67;56.69
61205;BME280;47068;55.780;37.520;2022-10-26T14:03:49;100360.53;;;5.67;57.15
61205;BME280;47068;55.780;37.520;2022-10-26T14:06:48;100369.19;;;5.69;57.63
61205;BME280;47068;55.780;37.520;2022-10-26T14:09:16;100372.94;;;5.67;57.43
61205;BME280;47068;55.780;37.520;2022-10-26T14:11:51;100372.56;;;5.71;57.40
61205;BME280;47068;55.780;37.520;2022-10-26T14:14:23;100371.94;;;5.68;58.08
61205;BME280;47068;55.780;37.520;2022-10-26T14:16:51;100340.44;;;5.42;57.98
61205;BME280;47068;55.780;37.520;2022-10-26T14:19:28;100374.94;;;5.63;58.22
61205;BME280;47068;55.780;37.520;2022-10-26T14:21:55;100321.22;;;5.29;58.57
61205;BME280;47068;55.780;37.520;2022-10-26T14:26:52;100381.34;;;5.72;58.48
61205;BME280;47068;55.780;37.520;2022-10-26T14:29:21;100381.34;;;5.72;58.45
61205;BME280;47068;55.780;37.520;2022-10-26T14:31:47;100378.81;;;5.70;59.02
61205;BME280;47068;55.780;37.520;2022-10-26T14:34:23;100376.00;;;5.61;59.38
61205;BME280;47068;55.780;37.520;2022-10-26T14:36:59;100384.19;;;5.58;60.03
61205;BME280;47068;55.780;37.520;2022-10-26T14:39:34;100379.63;;;5.60;59.19
61205;BME280;47068;55.780;37.520;2022-10-26T14:42:09;100376.25;;;5.58;59.98
61205;BME280;47068;55.780;37.520;2022-10-26T14:44:36;100379.94;;;5.55;60.07
61205;BME280;47068;55.780;37.520;2022-10-26T14:47:02;100386.66;;;5.48;60.38
61205;BME280;47068;55.780;37.520;2022-10-26T14:49:27;100379.66;;;5.36;60.81
61205;BME280;47068;55.780;37.520;2022-10-26T14:51:57;100386.06;;;5.44;60.51
61205;BME280;47068;55.780;37.520;2022-10-26T14:54:25;100390.25;;;5.47;61.20
61205;BME280;47068;55.780;37.520;2022-10-26T14:56:52;100382.00;;;5.51;60.52
61205;BME280;47068;55.780;37.520;2022-10-26T15:01:53;100340.63;;;5.17;60.36
61205;BME280;47068;55.780;37.520;2022-10-26T15:04:31;100387.59;;;5.47;61.07
61205;BME280;47068;55.780;37.520;2022-10-26T15:07:06;100388.44;;;5.47;61.47
61205;BME280;47068;55.780;37.520;2022-10-26T15:14:44;100384.97;;;5.47;61.29
61205;BME280;47068;55.780;37.520;2022-10-26T15:17:35;100395.97;;;5.41;61.21
61205;BME280;47068;55.780;37.520;2022-10-26T15:20:04;100395.13;;;5.40;62.07
61205;BME280;47068;55.780;37.520;2022-10-26T15:22:31;100355.81;;;5.13;62.17